createdAt,value
2023-04-08T00:04:41.357Z,1.4
2023-04-08T00:14:42.281Z,1.4
2023-04-08T00:24:43.176Z,1.3
2023-04-08T00:34:44.131Z,1.3
2023-04-08T00:44:45.138Z,1.2
2023-04-08T00:54:46.058Z,1.3
2023-04-08T01:04:46.981Z,1.1
2023-04-08T01:14:47.913Z,1.5
2023-04-08T01:24:48.780Z,1.3
2023-04-08T01:34:49.684Z,1.4
2023-04-08T01:44:50.610Z,1.7
2023-04-08T01:54:51.565Z,1.7
2023-04-08T02:04:52.596Z,1.8
2023-04-08T02:14:53.441Z,2.1
2023-04-08T02:24:54.393Z,4
2023-04-08T02:34:55.285Z,5.4
2023-04-08T02:44:56.314Z,6.7
2023-04-08T02:54:57.131Z,6.1
2023-04-08T03:04:58.074Z,4.1
2023-04-08T03:14:59.006Z,2.9
2023-04-08T03:24:59.972Z,2.4
2023-04-08T03:35:00.959Z,2.2
2023-04-08T03:45:01.922Z,1.8
2023-04-08T03:55:02.862Z,1.8
2023-04-08T04:05:03.933Z,1.6
2023-04-08T04:15:04.794Z,1.9
2023-04-08T04:25:05.727Z,2.1
2023-04-08T04:35:06.778Z,2
2023-04-08T04:45:07.918Z,1.8
2023-04-08T04:55:08.716Z,1.5
2023-04-08T05:05:09.776Z,1.5
2023-04-08T05:15:13.522Z,1.5
2023-04-08T05:25:12.077Z,1.5
2023-04-08T05:35:12.861Z,1.4
2023-04-08T05:45:13.888Z,1.7
2023-04-08T05:55:14.781Z,1.5
2023-04-08T06:05:15.950Z,1.7
2023-04-08T06:15:16.784Z,1.6
2023-04-08T06:25:17.983Z,1.6
2023-04-08T06:35:19.177Z,1.7
2023-04-08T06:45:20.018Z,1.5
2023-04-08T06:55:21.023Z,1.6
2023-04-08T07:05:22.069Z,1.8
2023-04-08T07:15:23.066Z,2
2023-04-08T07:25:24.110Z,1.8
2023-04-08T07:35:25.078Z,1.9
2023-04-08T07:45:25.889Z,2.3
2023-04-08T07:55:26.964Z,2.4
2023-04-08T08:05:27.983Z,1.9
2023-04-08T08:15:28.980Z,2.5
2023-04-08T08:25:30.107Z,2.8
2023-04-08T08:35:31.035Z,3.2
2023-04-08T08:45:31.921Z,3.9
2023-04-08T08:55:50.726Z,3.9
2023-04-08T09:05:34.139Z,4.2
2023-04-08T09:15:35.118Z,3.8
2023-04-08T09:25:36.269Z,3.4
2023-04-08T09:35:37.292Z,3.4
2023-04-08T09:45:38.356Z,4.2
2023-04-08T09:55:39.094Z,4
2023-04-08T10:05:40.312Z,3.6
2023-04-08T10:15:41.399Z,4.1
2023-04-08T10:25:42.182Z,4.7
2023-04-08T10:35:43.173Z,4.8
2023-04-08T10:45:45.892Z,4.5
2023-04-08T10:55:45.079Z,4.3
2023-04-08T11:05:47.652Z,4
2023-04-08T11:15:47.370Z,3.7
2023-04-08T11:25:48.263Z,3.8
2023-04-08T11:35:49.371Z,3.5
2023-04-08T11:45:50.188Z,4
2023-04-08T11:55:51.111Z,3.3
2023-04-08T12:05:52.192Z,3.5
2023-04-08T12:15:53.378Z,2.6
2023-04-08T12:25:54.523Z,3.2
2023-04-08T12:35:55.570Z,3.1
2023-04-08T12:45:56.642Z,3
2023-04-08T12:55:57.613Z,3.5
2023-04-08T13:05:58.702Z,3.1
2023-04-08T13:15:59.795Z,3.4
2023-04-08T13:26:00.733Z,3.6
2023-04-08T13:36:01.797Z,2.8
2023-04-08T13:46:02.900Z,3.3
2023-04-08T13:56:03.857Z,2.8
2023-04-08T14:06:04.895Z,3.1
2023-04-08T14:16:06.007Z,2.7
2023-04-08T14:26:06.989Z,2.9
2023-04-08T14:36:08.095Z,3.6
2023-04-08T14:46:09.156Z,3.2
2023-04-08T14:56:10.108Z,3
2023-04-08T15:06:11.250Z,3.9
2023-04-08T15:16:12.350Z,3.4
2023-04-08T15:26:13.508Z,3.5
2023-04-08T15:36:14.709Z,2.8
2023-04-08T15:46:15.959Z,2.8
2023-04-08T15:56:17.175Z,3.5
2023-04-08T16:06:18.308Z,2.6
2023-04-08T16:16:19.526Z,3
2023-04-08T16:26:20.671Z,3.1
2023-04-08T16:36:21.901Z,2.9
2023-04-08T16:46:23.075Z,2.4
2023-04-08T16:56:24.568Z,2.3
2023-04-08T17:06:25.481Z,2.5
2023-04-08T17:16:26.728Z,2.6
2023-04-08T17:26:27.947Z,2.2
2023-04-08T17:36:30.521Z,2.8
2023-04-08T17:46:30.467Z,2.4
2023-04-08T17:56:31.551Z,2.7
2023-04-08T18:06:32.705Z,2.5
2023-04-08T18:16:33.929Z,2.5
2023-04-08T18:26:35.136Z,2.4
2023-04-08T18:36:36.318Z,2.8
2023-04-08T18:46:37.476Z,2.9
2023-04-08T18:56:38.580Z,2.2
2023-04-08T19:06:39.664Z,3.4
2023-04-08T19:16:41.701Z,3
2023-04-08T19:26:41.927Z,3
2023-04-08T19:36:43.035Z,2.7
2023-04-08T19:46:44.089Z,2.3
2023-04-08T19:56:45.091Z,3.1
2023-04-08T20:06:46.150Z,2.5
2023-04-08T20:16:47.169Z,3.1
2023-04-08T20:26:48.168Z,2.3
2023-04-08T20:36:49.120Z,8.9
2023-04-08T20:46:50.042Z,3
2023-04-08T20:56:50.991Z,2.5
2023-04-08T21:06:52.037Z,3.2
2023-04-08T21:16:52.766Z,2.5
2023-04-08T21:26:53.671Z,2.5
2023-04-08T21:36:54.584Z,2.7
2023-04-08T21:46:55.464Z,2.3
2023-04-08T21:56:56.362Z,2.3
2023-04-08T22:06:57.259Z,2.5
2023-04-08T22:16:58.055Z,2.2
2023-04-08T22:26:58.946Z,2.3
2023-04-08T22:36:59.953Z,2.5
2023-04-08T22:47:00.838Z,2.6
2023-04-08T22:57:01.779Z,2.3
2023-04-08T23:07:02.709Z,2.5
2023-04-08T23:17:05.447Z,2.1
2023-04-08T23:27:04.408Z,2.8
2023-04-08T23:37:05.235Z,2.5
2023-04-08T23:47:06.021Z,2.8
2023-04-08T23:57:06.925Z,2.5
